sensor_id;sensor_type;location;lat;lon;timestamp;temperature;humidity
47765;DHT22;33529;49.242;8.670;2023-05-17T00:00:26;8.20;99.90
47765;DHT22;33529;49.242;8.670;2023-05-17T00:07:35;8.00;99.90
47765;DHT22;33529;49.242;8.670;2023-05-17T00:10:21;8.00;99.90
47765;DHT22;33529;49.242;8.670;2023-05-17T00:14:05;8.10;99.90
47765;DHT22;33529;49.242;8.670;2023-05-17T00:18:00;8.00;99.90
47765;DHT22;33529;49.242;8.670;2023-05-17T00:25:20;8.00;99.90
47765;DHT22;33529;49.242;8.670;2023-05-17T00:33:26;7.90;99.90
47765;DHT22;33529;49.242;8.670;2023-05-17T00:37:21;7.90;99.90
47765;DHT22;33529;49.242;8.670;2023-05-17T01:00:32;7.70;99.90
47765;DHT22;33529;49.242;8.670;2023-05-17T01:29:37;7.20;99.90
47765;DHT22;33529;49.242;8.670;2023-05-17T01:33:01;7.10;99.90
47765;DHT22;33529;49.242;8.670;2023-05-17T01:35:46;7.10;99.90
47765;DHT22;33529;49.242;8.670;2023-05-17T02:11:49;7.00;99.90
47765;DHT22;33529;49.242;8.670;2023-05-17T03:16:49;7.00;99.90
47765;DHT22;33529;49.242;8.670;2023-05-17T03:29:36;6.70;99.90
47765;DHT22;33529;49.242;8.670;2023-05-17T03:37:18;6.40;99.90
47765;DHT22;33529;49.242;8.670;2023-05-17T03:44:37;6.30;99.90
47765;DHT22;33529;49.242;8.670;2023-05-17T03:48:31;6.40;99.90
47765;DHT22;33529;49.242;8.670;2023-05-17T04:07:24;6.60;99.90
47765;DHT22;33529;49.242;8.670;2023-05-17T04:11:19;6.60;99.90
47765;DHT22;33529;49.242;8.670;2023-05-17T04:22:46;6.60;99.90
47765;DHT22;33529;49.242;8.670;2023-05-17T04:25:54;6.70;99.90
47765;DHT22;33529;49.242;8.670;2023-05-17T04:28:54;6.80;99.90
47765;DHT22;33529;49.242;8.670;2023-05-17T04:31:39;6.80;99.90
47765;DHT22;33529;49.242;8.670;2023-05-17T04:34:22;6.90;99.90
47765;DHT22;33529;49.242;8.670;2023-05-17T04:37:27;6.90;99.90
47765;DHT22;33529;49.242;8.670;2023-05-17T04:40:20;6.90;99.90
47765;DHT22;33529;49.242;8.670;2023-05-17T04:46:40;7.00;99.90
47765;DHT22;33529;49.242;8.670;2023-05-17T04:49:10;7.10;99.90
47765;DHT22;33529;49.242;8.670;2023-05-17T04:51:39;7.20;99.90
47765;DHT22;33529;49.242;8.670;2023-05-17T04:54:15;7.20;99.90
47765;DHT22;33529;49.242;8.670;2023-05-17T04:56:42;7.20;99.90
47765;DHT22;33529;49.242;8.670;2023-05-17T04:59:14;7.30;99.90
47765;DHT22;33529;49.242;8.670;2023-05-17T05:01:44;7.30;99.90
47765;DHT22;33529;49.242;8.670;2023-05-17T05:04:29;7.30;99.90
47765;DHT22;33529;49.242;8.670;2023-05-17T05:07:44;7.40;99.90
47765;DHT22;33529;49.242;8.670;2023-05-17T05:11:26;7.50;99.90
47765;DHT22;33529;49.242;8.670;2023-05-17T05:14:04;7.60;99.90
47765;DHT22;33529;49.242;8.670;2023-05-17T05:16:56;7.60;99.90
47765;DHT22;33529;49.242;8.670;2023-05-17T05:20:12;7.70;99.90
47765;DHT22;33529;49.242;8.670;2023-05-17T05:22:47;7.90;99.90
47765;DHT22;33529;49.242;8.670;2023-05-17T05:25:24;8.00;99.90
47765;DHT22;33529;49.242;8.670;2023-05-17T05:27:53;8.10;99.90
47765;DHT22;33529;49.242;8.670;2023-05-17T05:30:34;8.30;99.90
47765;DHT22;33529;49.242;8.670;2023-05-17T05:33:05;8.30;99.90
47765;DHT22;33529;49.242;8.670;2023-05-17T05:35:46;8.40;99.90
47765;DHT22;33529;49.242;8.670;2023-05-17T05:38:19;8.60;99.90
47765;DHT22;33529;49.242;8.670;2023-05-17T05:41:02;8.70;99.90
47765;DHT22;33529;49.242;8.670;2023-05-17T05:43:42;8.80;99.90
47765;DHT22;33529;49.242;8.670;2023-05-17T05:46:13;8.90;99.90
47765;DHT22;33529;49.242;8.670;2023-05-17T05:48:44;8.80;99.90
47765;DHT22;33529;49.242;8.670;2023-05-17T05:51:18;8.90;99.90
47765;DHT22;33529;49.242;8.670;2023-05-17T05:53:49;9.00;99.90
47765;DHT22;33529;49.242;8.670;2023-05-17T05:56:21;9.10;99.90
47765;DHT22;33529;49.242;8.670;2023-05-17T05:58:52;9.20;99.90
47765;DHT22;33529;49.242;8.670;2023-05-17T06:01:22;9.10;99.90
47765;DHT22;33529;49.242;8.670;2023-05-17T06:03:56;9.20;99.90
47765;DHT22;33529;49.242;8.670;2023-05-17T06:06:26;9.20;99.90
47765;DHT22;33529;49.242;8.670;2023-05-17T06:09:04;9.30;99.90
47765;DHT22;33529;49.242;8.670;2023-05-17T06:11:33;9.30;99.90
47765;DHT22;33529;49.242;8.670;2023-05-17T06:14:03;9.20;99.90
47765;DHT22;33529;49.242;8.670;2023-05-17T06:16:40;9.30;99.90
47765;DHT22;33529;49.242;8.670;2023-05-17T06:19:10;9.30;99.90
47765;DHT22;33529;49.242;8.670;2023-05-17T06:21:41;9.20;99.90
47765;DHT22;33529;49.242;8.670;2023-05-17T06:24:08;9.40;99.90
47765;DHT22;33529;49.242;8.670;2023-05-17T06:26:41;9.40;99.90
47765;DHT22;33529;49.242;8.670;2023-05-17T06:29:19;9.50;99.90
47765;DHT22;33529;49.242;8.670;2023-05-17T06:31:48;9.70;99.90
47765;DHT22;33529;49.242;8.670;2023-05-17T06:34:15;9.80;99.90
47765;DHT22;33529;49.242;8.670;2023-05-17T06:36:47;9.90;99.90
47765;DHT22;33529;49.242;8.670;2023-05-17T06:39:17;9.90;99.90
47765;DHT22;33529;49.242;8.670;2023-05-17T06:41:44;10.10;99.90
47765;DHT22;33529;49.242;8.670;2023-05-17T06:44:15;10.20;99.90
47765;DHT22;33529;49.242;8.670;2023-05-17T06:46:42;10.50;99.90
47765;DHT22;33529;49.242;8.670;2023-05-17T06:49:09;10.80;99.90
47765;DHT22;33529;49.242;8.670;2023-05-17T06:51:36;11.00;99.90
47765;DHT22;33529;49.242;8.670;2023-05-17T06:54:03;11.10;99.90
47765;DHT22;33529;49.242;8.670;2023-05-17T06:56:32;11.30;99.90
47765;DHT22;33529;49.242;8.670;2023-05-17T06:58:59;11.30;99.90
47765;DHT22;33529;49.242;8.670;2023-05-17T07:01:28;11.60;99.90
47765;DHT22;33529;49.242;8.670;2023-05-17T07:03:55;11.90;99.90
47765;DHT22;33529;49.242;8.670;2023-05-17T07:06:23;12.10;99.90
47765;DHT22;33529;49.242;8.670;2023-05-17T07:08:49;12.30;99.90
47765;DHT22;33529;49.242;8.670;2023-05-17T07:11:19;12.30;99.90
47765;DHT22;33529;49.242;8.670;2023-05-17T07:14:03;12.40;99.90
47765;DHT22;33529;49.242;8.670;2023-05-17T07:17:14;12.40;99.90
47765;DHT22;33529;49.242;8.670;2023-05-17T07:19:41;12.90;99.90
47765;DHT22;33529;49.242;8.670;2023-05-17T07:22:42;13.00;99.90
47765;DHT22;33529;49.242;8.670;2023-05-17T07:25:47;13.40;99.90
47765;DHT22;33529;49.242;8.670;2023-05-17T07:35:45;13.00;99.90
47765;DHT22;33529;49.242;8.670;2023-05-17T07:56:38;14.30;99.30
47765;DHT22;33529;49.242;8.670;2023-05-17T07:59:11;14.70;97.20
47765;DHT22;33529;49.242;8.670;2023-05-17T08:01:55;14.90;98.70
47765;DHT22;33529;49.242;8.670;2023-05-17T08:04:58;14.60;97.70
47765;DHT22;33529;49.242;8.670;2023-05-17T08:07:52;14.60;98.20
47765;DHT22;33529;49.242;8.670;2023-05-17T08:10:26;14.30;99.50
47765;DHT22;33529;49.242;8.670;2023-05-17T08:56:45;13.40;99.90
47765;DHT22;33529;49.242;8.670;2023-05-17T09:01:11;13.50;99.90
47765;DHT22;33529;49.242;8.670;2023-05-17T09:04:38;13.30;99.70
47765;DHT22;33529;49.242;8.670;2023-05-17T09:07:33;13.20;99.90
47765;DHT22;33529;49.242;8.670;2023-05-17T09:10:17;13.00;99.90
47765;DHT22;33529;49.242;8.670;2023-05-17T09:16:22;13.00;99.90
47765;DHT22;33529;49.242;8.670;2023-05-17T09:18:59;12.90;99.90
47765;DHT22;33529;49.242;8.670;2023-05-17T09:21:56;12.90;99.90
47765;DHT22;33529;49.242;8.670;2023-05-17T09:24:39;13.10;99.90
47765;DHT22;33529;49.242;8.670;2023-05-17T09:27:46;13.50;99.90
47765;DHT22;33529;49.242;8.670;2023-05-17T09:30:35;13.70;98.10
47765;DHT22;33529;49.242;8.670;2023-05-17T09:33:42;14.00;98.10
47765;DHT22;33529;49.242;8.670;2023-05-17T09:36:36;14.00;97.90
47765;DHT22;33529;49.242;8.670;2023-05-17T09:39:53;14.10;98.10
47765;DHT22;33529;49.242;8.670;2023-05-17T09:42:28;14.00;97.00
47765;DHT22;33529;49.242;8.670;2023-05-17T09:45:57;13.80;96.90
47765;DHT22;33529;49.242;8.670;2023-05-17T10:00:52;14.10;96.40
47765;DHT22;33529;49.242;8.670;2023-05-17T10:04:30;14.70;96.70
47765;DHT22;33529;49.242;8.670;2023-05-17T10:07:51;14.80;94.90
47765;DHT22;33529;49.242;8.670;2023-05-17T10:10:36;14.70;95.00
47765;DHT22;33529;49.242;8.670;2023-05-17T10:36:55;14.50;94.40
47765;DHT22;33529;49.242;8.670;2023-05-17T10:40:43;15.00;93.70
47765;DHT22;33529;49.242;8.670;2023-05-17T10:44:15;15.20;93.70
47765;DHT22;33529;49.242;8.670;2023-05-17T10:47:41;15.10;94.00
47765;DHT22;33529;49.242;8.670;2023-05-17T10:50:27;15.30;93.20
47765;DHT22;33529;49.242;8.670;2023-05-17T10:53:32;15.20;92.00
47765;DHT22;33529;49.242;8.670;2023-05-17T10:56:54;14.80;92.10
47765;DHT22;33529;49.242;8.670;2023-05-17T10:59:55;14.50;92.40
47765;DHT22;33529;49.242;8.670;2023-05-17T11:02:38;14.40;92.90
47765;DHT22;33529;49.242;8.670;2023-05-17T11:05:22;14.60;92.90
47765;DHT22;33529;49.242;8.670;2023-05-17T11:08:16;14.70;93.10
47765;DHT22;33529;49.242;8.670;2023-05-17T11:11:10;14.90;92.90
47765;DHT22;33529;49.242;8.670;2023-05-17T11:13:55;15.00;91.60
47765;DHT22;33529;49.242;8.670;2023-05-17T11:16:41;15.00;90.60
47765;DHT22;33529;49.242;8.670;2023-05-17T11:19:10;14.80;91.90
47765;DHT22;33529;49.242;8.670;2023-05-17T11:21:46;14.70;91.90
47765;DHT22;33529;49.242;8.670;2023-05-17T11:24:23;14.70;92.30
47765;DHT22;33529;49.242;8.670;2023-05-17T11:27:05;14.60;93.20
47765;DHT22;33529;49.242;8.670;2023-05-17T11:29:54;14.70;92.80
47765;DHT22;33529;49.242;8.670;2023-05-17T11:33:08;14.80;93.00
47765;DHT22;33529;49.242;8.670;2023-05-17T11:35:55;14.70;93.10
47765;DHT22;33529;49.242;8.670;2023-05-17T11:38:38;14.80;93.80
47765;DHT22;33529;49.242;8.670;2023-05-17T11:41:21;14.90;91.80
47765;DHT22;33529;49.242;8.670;2023-05-17T11:43:52;15.00;92.30
47765;DHT22;33529;49.242;8.670;2023-05-17T11:46:21;15.20;91.70
47765;DHT22;33529;49.242;8.670;2023-05-17T11:48:50;15.20;91.60
47765;DHT22;33529;49.242;8.670;2023-05-17T11:51:18;15.40;92.20
47765;DHT22;33529;49.242;8.670;2023-05-17T11:53:50;15.60;91.90
47765;DHT22;33529;49.242;8.670;2023-05-17T11:56:17;15.80;91.60
47765;DHT22;33529;49.242;8.670;2023-05-17T11:58:58;15.60;90.90
47765;DHT22;33529;49.242;8.670;2023-05-17T12:01:25;15.60;91.30
47765;DHT22;33529;49.242;8.670;2023-05-17T12:03:58;15.50;91.20
47765;DHT22;33529;49.242;8.670;2023-05-17T12:06:33;15.50;91.40
47765;DHT22;33529;49.242;8.670;2023-05-17T12:09:04;15.80;91.40
47765;DHT22;33529;49.242;8.670;2023-05-17T12:11:49;15.60;91.30
47765;DHT22;33529;49.242;8.670;2023-05-17T12:14:17;15.40;91.20
47765;DHT22;33529;49.242;8.670;2023-05-17T12:16:46;15.20;91.40
47765;DHT22;33529;49.242;8.670;2023-05-17T12:19:21;15.30;91.20
47765;DHT22;33529;49.242;8.670;2023-05-17T12:21:49;15.30;93.20
47765;DHT22;33529;49.242;8.670;2023-05-17T12:24:17;15.30;92.20
47765;DHT22;33529;49.242;8.670;2023-05-17T12:26:45;15.60;91.80
47765;DHT22;33529;49.242;8.670;2023-05-17T12:29:14;15.70;92.20
47765;DHT22;33529;49.242;8.670;2023-05-17T12:31:47;15.80;92.00
47765;DHT22;33529;49.242;8.670;2023-05-17T12:34:16;15.90;91.20
47765;DHT22;33529;49.242;8.670;2023-05-17T12:36:44;16.00;91.00
47765;DHT22;33529;49.242;8.670;2023-05-17T12:39:12;16.20;90.80
47765;DHT22;33529;49.242;8.670;2023-05-17T12:41:42;16.30;90.30
47765;DHT22;33529;49.242;8.670;2023-05-17T12:44:12;16.30;91.50
47765;DHT22;33529;49.242;8.670;2023-05-17T12:46:42;16.10;89.20
47765;DHT22;33529;49.242;8.670;2023-05-17T12:49:10;15.80;90.60
47765;DHT22;33529;49.242;8.670;2023-05-17T12:51:41;16.00;90.80
47765;DHT22;33529;49.242;8.670;2023-05-17T12:54:10;16.60;92.30
47765;DHT22;33529;49.242;8.670;2023-05-17T12:56:37;17.20;88.20
47765;DHT22;33529;49.242;8.670;2023-05-17T12:59:14;17.50;90.90
47765;DHT22;33529;49.242;8.670;2023-05-17T13:01:45;18.00;88.10
47765;DHT22;33529;49.242;8.670;2023-05-17T13:04:13;18.10;84.80
47765;DHT22;33529;49.242;8.670;2023-05-17T13:06:52;18.00;83.40
47765;DHT22;33529;49.242;8.670;2023-05-17T13:09:21;17.90;85.50
47765;DHT22;33529;49.242;8.670;2023-05-17T13:11:50;17.60;86.30
47765;DHT22;33529;49.242;8.670;2023-05-17T13:14:36;17.40;83.20
47765;DHT22;33529;49.242;8.670;2023-05-17T13:17:26;16.90;84.90
47765;DHT22;33529;49.242;8.670;2023-05-17T13:20:00;16.70;86.90
47765;DHT22;33529;49.242;8.670;2023-05-17T13:22:30;16.90;87.00
47765;DHT22;33529;49.242;8.670;2023-05-17T13:25:02;17.30;86.50
47765;DHT22;33529;49.242;8.670;2023-05-17T13:27:38;17.60;83.30
47765;DHT22;33529;49.242;8.670;2023-05-17T13:30:11;17.60;84.10
47765;DHT22;33529;49.242;8.670;2023-05-17T13:32:42;17.50;83.80
47765;DHT22;33529;49.242;8.670;2023-05-17T13:35:13;17.50;85.00
47765;DHT22;33529;49.242;8.670;2023-05-17T13:37:39;17.40;83.20
47765;DHT22;33529;49.242;8.670;2023-05-17T13:40:07;17.30;84.40
47765;DHT22;33529;49.242;8.670;2023-05-17T13:42:36;17.10;87.00
47765;DHT22;33529;49.242;8.670;2023-05-17T13:45:03;17.40;88.20
47765;DHT22;33529;49.242;8.670;2023-05-17T13:47:32;17.40;86.30
47765;DHT22;33529;49.242;8.670;2023-05-17T13:50:02;17.80;83.80
47765;DHT22;33529;49.242;8.670;2023-05-17T13:52:33;17.90;83.40
47765;DHT22;33529;49.242;8.670;2023-05-17T13:55:03;17.90;80.60
47765;DHT22;33529;49.242;8.670;2023-05-17T13:57:30;18.00;84.00
47765;DHT22;33529;49.242;8.670;2023-05-17T14:00:13;18.10;82.30
47765;DHT22;33529;49.242;8.670;2023-05-17T14:02:42;18.20;83.20
47765;DHT22;33529;49.242;8.670;2023-05-17T14:05:14;18.30;83.00
47765;DHT22;33529;49.242;8.670;2023-05-17T14:07:41;18.50;84.20
47765;DHT22;33529;49.242;8.670;2023-05-17T14:10:12;18.70;82.70
47765;DHT22;33529;49.242;8.670;2023-05-17T14:12:39;19.00;80.30
47765;DHT22;33529;49.242;8.670;2023-05-17T14:15:08;19.30;81.80
47765;DHT22;33529;49.242;8.670;2023-05-17T14:17:36;19.60;80.30
47765;DHT22;33529;49.242;8.670;2023-05-17T14:20:06;19.30;82.60
47765;DHT22;33529;49.242;8.670;2023-05-17T14:22:34;19.40;79.20
47765;DHT22;33529;49.242;8.670;2023-05-17T14:25:00;19.00;78.50
47765;DHT22;33529;49.242;8.670;2023-05-17T14:27:27;18.60;79.50
47765;DHT22;33529;49.242;8.670;2023-05-17T14:29:54;19.10;78.20
47765;DHT22;33529;49.242;8.670;2023-05-17T14:32:21;20.60;76.70
47765;DHT22;33529;49.242;8.670;2023-05-17T14:34:48;21.10;73.80
47765;DHT22;33529;49.242;8.670;2023-05-17T14:37:17;20.00;74.40
47765;DHT22;33529;49.242;8.670;2023-05-17T14:39:44;19.40;75.50
47765;DHT22;33529;49.242;8.670;2023-05-17T14:42:30;19.10;73.90
47765;DHT22;33529;49.242;8.670;2023-05-17T14:44:57;18.80;73.90
47765;DHT22;33529;49.242;8.670;2023-05-17T14:47:24;18.90;75.70
47765;DHT22;33529;49.242;8.670;2023-05-17T14:49:56;19.20;80.10
47765;DHT22;33529;49.242;8.670;2023-05-17T14:52:48;19.30;74.70
47765;DHT22;33529;49.242;8.670;2023-05-17T14:55:52;19.20;75.30
47765;DHT22;33529;49.242;8.670;2023-05-17T14:58:40;19.80;74.80
47765;DHT22;33529;49.242;8.670;2023-05-17T15:01:54;21.00;72.80
47765;DHT22;33529;49.242;8.670;2023-05-17T15:05:07;20.90;70.80
47765;DHT22;33529;49.242;8.670;2023-05-17T15:08:04;20.80;71.00
47765;DHT22;33529;49.242;8.670;2023-05-17T15:11:20;21.60;69.80
47765;DHT22;33529;49.242;8.670;2023-05-17T15:14:21;23.10;69.50
47765;DHT22;33529;49.242;8.670;2023-05-17T15:17:27;24.30;64.00
47765;DHT22;33529;49.242;8.670;2023-05-17T15:20:23;24.60;63.40
47765;DHT22;33529;49.242;8.670;2023-05-17T15:23:06;25.60;61.10
47765;DHT22;33529;49.242;8.670;2023-05-17T15:25:45;26.40;63.30
47765;DHT22;33529;49.242;8.670;2023-05-17T15:28:24;26.30;62.00
47765;DHT22;33529;49.242;8.670;2023-05-17T15:31:06;25.00;64.10
47765;DHT22;33529;49.242;8.670;2023-05-17T15:33:52;24.40;62.30
47765;DHT22;33529;49.242;8.670;2023-05-17T15:36:28;24.30;64.70
47765;DHT22;33529;49.242;8.670;2023-05-17T15:39:11;24.20;60.90
47765;DHT22;33529;49.242;8.670;2023-05-17T15:41:54;23.40;63.30
47765;DHT22;33529;49.242;8.670;2023-05-17T15:44:28;22.20;65.00
47765;DHT22;33529;49.242;8.670;2023-05-17T15:47:01;20.90;65.00
47765;DHT22;33529;49.242;8.670;2023-05-17T15:49:35;20.20;67.00
47765;DHT22;33529;49.242;8.670;2023-05-17T15:52:02;19.80;69.20
47765;DHT22;33529;49.242;8.670;2023-05-17T15:54:43;19.50;71.50
47765;DHT22;33529;49.242;8.670;2023-05-17T15:57:19;20.40;67.80
47765;DHT22;33529;49.242;8.670;2023-05-17T15:59:50;20.50;65.90
47765;DHT22;33529;49.242;8.670;2023-05-17T16:02:23;20.40;67.60
47765;DHT22;33529;49.242;8.670;2023-05-17T16:05:01;20.10;67.70
47765;DHT22;33529;49.242;8.670;2023-05-17T16:07:34;19.50;72.10
47765;DHT22;33529;49.242;8.670;2023-05-17T16:10:05;19.20;70.00
47765;DHT22;33529;49.242;8.670;2023-05-17T16:12:45;19.00;73.10
47765;DHT22;33529;49.242;8.670;2023-05-17T16:15:16;18.70;73.80
47765;DHT22;33529;49.242;8.670;2023-05-17T16:17:49;18.50;71.90
47765;DHT22;33529;49.242;8.670;2023-05-17T16:20:33;18.40;75.30
47765;DHT22;33529;49.242;8.670;2023-05-17T16:23:07;18.20;71.70
47765;DHT22;33529;49.242;8.670;2023-05-17T16:25:51;18.00;72.50
47765;DHT22;33529;49.242;8.670;2023-05-17T16:28:28;17.60;69.30
47765;DHT22;33529;49.242;8.670;2023-05-17T16:31:07;17.30;70.60
47765;DHT22;33529;49.242;8.670;2023-05-17T16:33:42;16.90;70.90
47765;DHT22;33529;49.242;8.670;2023-05-17T16:36:27;17.00;72.20
47765;DHT22;33529;49.242;8.670;2023-05-17T16:39:33;17.00;71.10
47765;DHT22;33529;49.242;8.670;2023-05-17T16:42:17;16.80;72.40
47765;DHT22;33529;49.242;8.670;2023-05-17T16:45:18;16.80;72.00
47765;DHT22;33529;49.242;8.670;2023-05-17T16:52:21;16.80;71.50
47765;DHT22;33529;49.242;8.670;2023-05-17T16:54:51;16.90;71.80
47765;DHT22;33529;49.242;8.670;2023-05-17T16:57:17;16.90;73.70
47765;DHT22;33529;49.242;8.670;2023-05-17T16:59:44;16.90;72.70
47765;DHT22;33529;49.242;8.670;2023-05-17T17:02:13;16.90;72.40
47765;DHT22;33529;49.242;8.670;2023-05-17T17:04:40;17.00;74.20
47765;DHT22;33529;49.242;8.670;2023-05-17T17:07:10;17.00;73.10
47765;DHT22;33529;49.242;8.670;2023-05-17T17:09:37;16.90;73.50
47765;DHT22;33529;49.242;8.670;2023-05-17T17:12:03;17.00;73.20
47765;DHT22;33529;49.242;8.670;2023-05-17T17:14:50;17.20;75.50
47765;DHT22;33529;49.242;8.670;2023-05-17T17:17:17;17.20;75.60
47765;DHT22;33529;49.242;8.670;2023-05-17T17:19:44;16.90;74.00
47765;DHT22;33529;49.242;8.670;2023-05-17T17:22:15;16.80;71.60
47765;DHT22;33529;49.242;8.670;2023-05-17T17:24:44;16.60;72.20
47765;DHT22;33529;49.242;8.670;2023-05-17T17:27:11;16.50;73.30
47765;DHT22;33529;49.242;8.670;2023-05-17T17:29:50;16.20;73.60
47765;DHT22;33529;49.242;8.670;2023-05-17T17:32:18;16.10;74.50
47765;DHT22;33529;49.242;8.670;2023-05-17T17:34:45;16.00;75.00
47765;DHT22;33529;49.242;8.670;2023-05-17T17:37:14;16.00;78.10
47765;DHT22;33529;49.242;8.670;2023-05-17T17:39:43;15.90;75.50
47765;DHT22;33529;49.242;8.670;2023-05-17T17:42:11;15.90;76.10
47765;DHT22;33529;49.242;8.670;2023-05-17T17:44:38;15.80;75.90
47765;DHT22;33529;49.242;8.670;2023-05-17T17:47:04;15.80;76.10
47765;DHT22;33529;49.242;8.670;2023-05-17T17:49:31;15.70;76.40
47765;DHT22;33529;49.242;8.670;2023-05-17T17:52:01;15.70;75.00
47765;DHT22;33529;49.242;8.670;2023-05-17T17:54:28;15.70;74.90
47765;DHT22;33529;49.242;8.670;2023-05-17T17:56:55;15.80;75.30
47765;DHT22;33529;49.242;8.670;2023-05-17T17:59:22;15.70;75.90
47765;DHT22;33529;49.242;8.670;2023-05-17T18:01:48;15.80;75.10
47765;DHT22;33529;49.242;8.670;2023-05-17T18:04:16;15.80;74.80
47765;DHT22;33529;49.242;8.670;2023-05-17T18:06:43;15.70;75.10
47765;DHT22;33529;49.242;8.670;2023-05-17T18:09:11;15.80;74.70
47765;DHT22;33529;49.242;8.670;2023-05-17T18:11:38;15.70;75.30
47765;DHT22;33529;49.242;8.670;2023-05-17T18:14:13;15.60;75.80
47765;DHT22;33529;49.242;8.670;2023-05-17T18:16:43;15.50;77.00
47765;DHT22;33529;49.242;8.670;2023-05-17T18:19:11;15.40;76.90
47765;DHT22;33529;49.242;8.670;2023-05-17T18:21:37;15.30;78.60
47765;DHT22;33529;49.242;8.670;2023-05-17T18:24:05;15.20;79.70
47765;DHT22;33529;49.242;8.670;2023-05-17T18:26:32;15.20;80.70
47765;DHT22;33529;49.242;8.670;2023-05-17T18:28:59;15.20;81.80
47765;DHT22;33529;49.242;8.670;2023-05-17T18:31:26;15.10;84.20
47765;DHT22;33529;49.242;8.670;2023-05-17T18:33:52;15.20;82.30
47765;DHT22;33529;49.242;8.670;2023-05-17T18:36:22;15.00;82.60
47765;DHT22;33529;49.242;8.670;2023-05-17T18:38:49;14.90;86.10
47765;DHT22;33529;49.242;8.670;2023-05-17T18:41:16;14.80;84.00
47765;DHT22;33529;49.242;8.670;2023-05-17T18:43:43;14.70;87.00
47765;DHT22;33529;49.242;8.670;2023-05-17T18:46:10;14.60;87.40
47765;DHT22;33529;49.242;8.670;2023-05-17T18:48:37;14.60;86.10
47765;DHT22;33529;49.242;8.670;2023-05-17T18:51:05;14.50;84.10
47765;DHT22;33529;49.242;8.670;2023-05-17T18:53:32;14.40;84.80
47765;DHT22;33529;49.242;8.670;2023-05-17T18:56:01;14.30;85.70
47765;DHT22;33529;49.242;8.670;2023-05-17T18:58:28;14.20;84.30
47765;DHT22;33529;49.242;8.670;2023-05-17T19:00:55;14.10;85.20
47765;DHT22;33529;49.242;8.670;2023-05-17T19:03:22;13.90;88.00
47765;DHT22;33529;49.242;8.670;2023-05-17T19:05:48;13.80;86.10
47765;DHT22;33529;49.242;8.670;2023-05-17T19:08:15;13.70;88.50
47765;DHT22;33529;49.242;8.670;2023-05-17T19:10:42;13.60;88.90
47765;DHT22;33529;49.242;8.670;2023-05-17T19:13:09;13.50;90.40
47765;DHT22;33529;49.242;8.670;2023-05-17T19:15:37;13.40;90.40
47765;DHT22;33529;49.242;8.670;2023-05-17T19:18:03;13.30;90.40
47765;DHT22;33529;49.242;8.670;2023-05-17T19:20:32;13.30;90.40
47765;DHT22;33529;49.242;8.670;2023-05-17T19:22:59;13.20;90.00
47765;DHT22;33529;49.242;8.670;2023-05-17T19:25:27;13.10;90.90
47765;DHT22;33529;49.242;8.670;2023-05-17T19:27:54;13.00;90.90
47765;DHT22;33529;49.242;8.670;2023-05-17T19:30:20;12.90;91.70
47765;DHT22;33529;49.242;8.670;2023-05-17T19:32:48;12.80;91.70
47765;DHT22;33529;49.242;8.670;2023-05-17T19:35:15;12.70;93.50
47765;DHT22;33529;49.242;8.670;2023-05-17T19:37:42;12.60;94.00
47765;DHT22;33529;49.242;8.670;2023-05-17T19:40:09;12.50;96.60
47765;DHT22;33529;49.242;8.670;2023-05-17T19:42:36;12.50;96.60
47765;DHT22;33529;49.242;8.670;2023-05-17T19:45:07;12.40;99.70
47765;DHT22;33529;49.242;8.670;2023-05-17T19:47:36;12.40;99.70
47765;DHT22;33529;49.242;8.670;2023-05-17T19:50:03;12.30;99.90
47765;DHT22;33529;49.242;8.670;2023-05-17T19:52:30;12.20;99.90
47765;DHT22;33529;49.242;8.670;2023-05-17T19:54:57;12.20;99.10
47765;DHT22;33529;49.242;8.670;2023-05-17T19:57:24;12.20;98.00
47765;DHT22;33529;49.242;8.670;2023-05-17T19:59:51;12.10;97.60
47765;DHT22;33529;49.242;8.670;2023-05-17T20:02:18;12.10;97.20
47765;DHT22;33529;49.242;8.670;2023-05-17T20:04:46;12.10;97.10
47765;DHT22;33529;49.242;8.670;2023-05-17T20:07:13;12.00;97.00
47765;DHT22;33529;49.242;8.670;2023-05-17T20:09:40;11.90;96.80
47765;DHT22;33529;49.242;8.670;2023-05-17T20:12:07;11.90;96.30
47765;DHT22;33529;49.242;8.670;2023-05-17T20:14:34;11.90;96.80
47765;DHT22;33529;49.242;8.670;2023-05-17T20:17:02;11.90;96.80
47765;DHT22;33529;49.242;8.670;2023-05-17T20:19:29;11.90;95.70
47765;DHT22;33529;49.242;8.670;2023-05-17T20:21:56;11.90;96.10
47765;DHT22;33529;49.242;8.670;2023-05-17T20:24:23;11.90;96.50
47765;DHT22;33529;49.242;8.670;2023-05-17T20:26:56;11.80;99.60
47765;DHT22;33529;49.242;8.670;2023-05-17T20:29:22;11.60;99.90
47765;DHT22;33529;49.242;8.670;2023-05-17T20:31:50;11.60;99.90
47765;DHT22;33529;49.242;8.670;2023-05-17T20:34:17;11.70;99.90
47765;DHT22;33529;49.242;8.670;2023-05-17T20:36:43;11.70;99.40
47765;DHT22;33529;49.242;8.670;2023-05-17T20:39:11;11.70;98.90
47765;DHT22;33529;49.242;8.670;2023-05-17T20:41:38;11.70;99.20
47765;DHT22;33529;49.242;8.670;2023-05-17T20:44:11;11.70;99.60
47765;DHT22;33529;49.242;8.670;2023-05-17T20:46:42;11.60;99.90
47765;DHT22;33529;49.242;8.670;2023-05-17T20:49:12;11.70;99.90
47765;DHT22;33529;49.242;8.670;2023-05-17T20:51:45;11.60;99.90
47765;DHT22;33529;49.242;8.670;2023-05-17T20:54:12;11.50;99.90
47765;DHT22;33529;49.242;8.670;2023-05-17T20:56:39;11.50;99.90
47765;DHT22;33529;49.242;8.670;2023-05-17T20:59:06;11.50;99.90
47765;DHT22;33529;49.242;8.670;2023-05-17T21:01:33;11.30;99.90
47765;DHT22;33529;49.242;8.670;2023-05-17T21:04:00;11.40;99.90
47765;DHT22;33529;49.242;8.670;2023-05-17T21:06:27;11.40;99.90
47765;DHT22;33529;49.242;8.670;2023-05-17T21:08:58;11.50;99.90
47765;DHT22;33529;49.242;8.670;2023-05-17T21:11:27;11.40;99.90
47765;DHT22;33529;49.242;8.670;2023-05-17T21:13:55;11.40;99.90
47765;DHT22;33529;49.242;8.670;2023-05-17T21:16:25;11.40;99.90
47765;DHT22;33529;49.242;8.670;2023-05-17T21:18:51;11.40;98.90
47765;DHT22;33529;49.242;8.670;2023-05-17T21:21:18;11.40;98.20
47765;DHT22;33529;49.242;8.670;2023-05-17T21:23:47;11.40;97.40
47765;DHT22;33529;49.242;8.670;2023-05-17T21:26:14;11.50;97.30
47765;DHT22;33529;49.242;8.670;2023-05-17T21:28:42;11.50;97.40
47765;DHT22;33529;49.242;8.670;2023-05-17T21:31:08;11.40;97.30
47765;DHT22;33529;49.242;8.670;2023-05-17T21:33:35;11.40;97.10
47765;DHT22;33529;49.242;8.670;2023-05-17T21:36:02;11.40;96.80
47765;DHT22;33529;49.242;8.670;2023-05-17T21:38:29;11.40;96.70
47765;DHT22;33529;49.242;8.670;2023-05-17T21:40:56;11.50;96.60
47765;DHT22;33529;49.242;8.670;2023-05-17T21:43:22;11.50;96.50
47765;DHT22;33529;49.242;8.670;2023-05-17T21:45:49;11.50;96.40
47765;DHT22;33529;49.242;8.670;2023-05-17T21:48:16;11.40;96.50
47765;DHT22;33529;49.242;8.670;2023-05-17T21:50:44;11.40;96.80
47765;DHT22;33529;49.242;8.670;2023-05-17T21:53:10;11.40;96.60
47765;DHT22;33529;49.242;8.670;2023-05-17T21:55:37;11.40;96.90